FQBR

Beira Airport

Airport
ICAO code
FQBR
IATA Code
BEW
Summary
ICAO Region
AFI
ICAO Territory
Location

Beira,

Serving
Beira
Elevation
33 ft
Coordinates
19° 47' 49" S , 34° 54' 32" E
Metar
Observation
FQBR 091900Z 12009KT 9999 FEW018 22/21 Q1019
Station
Beira
Date/Time
2022-08-09 19:00:00
Wind direction
120°
Wind speed
09 kts
Lowest cloud amount
few clouds
Temperature
22°C
Dew point
21°C
Humidity
94%
QNH
1019 hPa
Weather condition
n/a

Runways

Designator Length Width Surface Rops
6/24 920 45 ASP Yes/Yes
17/35 1725 45 ASP Yes/Yes
12/30 2400 45 ASP Yes/Yes

Airport map

Aerial View

SKYbrary Partners:

Safety knowledge contributed by: